createdAt,value
2017-10-02T00:02:10.145Z,16.48
2017-10-02T00:07:12.092Z,16.42
2017-10-02T00:12:15.021Z,16.52
2017-10-02T00:17:17.614Z,16.43
2017-10-02T00:22:19.986Z,16.47
2017-10-02T00:27:22.606Z,16.41
2017-10-02T00:32:24.623Z,16.45
2017-10-02T00:37:27.262Z,16.39
2017-10-02T00:42:29.974Z,16.35
2017-10-02T00:47:32.667Z,16.35
2017-10-02T00:52:35.482Z,16.41
2017-10-02T00:57:37.948Z,16.35
2017-10-02T01:02:41.142Z,16.38
2017-10-02T01:07:43.689Z,16.33
2017-10-02T01:12:46.514Z,16.29
2017-10-02T01:17:49.194Z,16.30
2017-10-02T01:22:51.551Z,16.37
2017-10-02T01:27:54.082Z,16.33
2017-10-02T01:32:56.326Z,16.33
2017-10-02T01:37:58.851Z,16.29
2017-10-02T01:43:02.169Z,16.23
2017-10-02T01:48:04.866Z,16.24
2017-10-02T01:53:07.576Z,16.23
2017-10-02T01:58:09.866Z,16.26
2017-10-02T02:03:11.797Z,16.36
2017-10-02T02:08:13.982Z,16.40
2017-10-02T02:13:16.492Z,16.45
2017-10-02T02:18:19.138Z,16.51
2017-10-02T02:23:22.472Z,16.56
2017-10-02T02:28:25.114Z,16.61
2017-10-02T02:33:27.794Z,16.63
2017-10-02T02:38:30.111Z,16.67
2017-10-02T02:43:32.719Z,16.70
2017-10-02T02:48:35.419Z,16.68
2017-10-02T02:53:38.010Z,16.76
2017-10-02T02:58:40.092Z,16.69
2017-10-02T03:03:42.758Z,16.71
2017-10-02T03:08:45.375Z,16.74
2017-10-02T03:13:48.068Z,16.77
2017-10-02T03:18:50.121Z,16.71
2017-10-02T03:23:52.395Z,16.62
2017-10-02T03:28:55.218Z,16.53
2017-10-02T03:33:58.037Z,16.49
2017-10-02T03:39:00.666Z,16.41
2017-10-02T03:44:03.297Z,16.33
2017-10-02T03:49:05.864Z,16.25
2017-10-02T03:54:10.872Z,16.17
2017-10-02T03:59:13.786Z,16.06
2017-10-02T04:04:15.851Z,16.05
2017-10-02T04:09:18.111Z,15.99
2017-10-02T04:14:20.721Z,15.86
2017-10-02T04:19:24.321Z,15.85
2017-10-02T04:24:26.794Z,15.86
2017-10-02T04:29:28.795Z,15.74
2017-10-02T04:34:33.023Z,15.79
2017-10-02T04:39:37.039Z,15.83
2017-10-02T04:44:39.880Z,15.78
2017-10-02T04:49:42.141Z,15.81
2017-10-02T04:54:44.780Z,15.80
2017-10-02T04:59:53.603Z,15.79
2017-10-02T05:04:56.193Z,15.70
2017-10-02T05:09:58.821Z,15.71
2017-10-02T05:15:02.177Z,15.79
2017-10-02T05:20:04.298Z,15.72
2017-10-02T05:25:07.061Z,15.78
2017-10-02T05:30:13.043Z,15.80
2017-10-02T05:35:15.974Z,15.88
2017-10-02T05:40:19.644Z,15.78
2017-10-02T05:45:22.296Z,15.89
2017-10-02T05:50:25.202Z,15.96
2017-10-02T05:55:32.142Z,15.96
2017-10-02T06:00:38.056Z,16.04
2017-10-02T06:05:45.011Z,16.08
2017-10-02T06:10:48.120Z,16.14
2017-10-02T06:15:52.707Z,16.20
2017-10-02T06:20:55.061Z,16.21
2017-10-02T06:25:57.344Z,16.33
2017-10-02T06:30:59.996Z,16.26
2017-10-02T06:36:02.460Z,16.26
2017-10-02T06:41:05.133Z,16.46
2017-10-02T06:46:08.536Z,16.59
2017-10-02T06:51:10.763Z,16.65
2017-10-02T06:56:13.119Z,16.66
2017-10-02T07:01:15.966Z,16.75
2017-10-02T07:06:18.023Z,16.69
2017-10-02T07:11:20.793Z,16.73
2017-10-02T07:16:23.447Z,16.83
2017-10-02T07:21:26.099Z,16.89
2017-10-02T07:26:28.075Z,17.00
2017-10-02T07:31:30.063Z,17.03
2017-10-02T07:36:32.595Z,17.13
2017-10-02T07:41:34.962Z,17.23
2017-10-02T07:46:37.730Z,17.25
2017-10-02T07:51:40.344Z,17.26
2017-10-02T07:56:43.674Z,17.43
2017-10-02T08:01:45.800Z,17.40
2017-10-02T08:06:47.777Z,17.46
2017-10-02T08:11:50.183Z,17.46
2017-10-02T08:16:53.001Z,17.49
2017-10-02T08:21:55.637Z,17.60
2017-10-02T08:26:58.310Z,17.75
2017-10-02T08:32:00.882Z,17.72
2017-10-02T08:37:03.698Z,17.80
2017-10-02T08:42:06.912Z,17.76
2017-10-02T08:47:09.674Z,17.97
2017-10-02T08:52:13.056Z,18.19
2017-10-02T08:57:16.449Z,18.23
2017-10-02T09:02:19.096Z,18.29
2017-10-02T09:07:21.928Z,18.35
2017-10-02T09:12:24.610Z,18.34
2017-10-02T09:17:26.824Z,18.23
2017-10-02T09:22:28.793Z,18.26
2017-10-02T09:27:31.498Z,18.25
2017-10-02T09:32:34.430Z,18.23
2017-10-02T09:37:36.999Z,18.30
2017-10-02T09:42:39.277Z,18.34
2017-10-02T09:47:41.968Z,18.75
2017-10-02T09:52:44.404Z,19.44
2017-10-02T09:57:47.033Z,19.77
2017-10-02T10:02:50.359Z,19.93
2017-10-02T10:07:52.981Z,20.18
2017-10-02T10:12:56.355Z,20.54
2017-10-02T10:17:59.712Z,20.58
2017-10-02T10:23:02.293Z,20.71
2017-10-02T10:28:04.833Z,20.79
2017-10-02T10:33:06.958Z,20.92
2017-10-02T10:38:09.666Z,21.13
2017-10-02T10:43:12.343Z,21.12
2017-10-02T10:48:15.043Z,21.06
2017-10-02T10:53:17.298Z,20.95
2017-10-02T10:58:20.089Z,21.00
2017-10-02T11:03:22.712Z,20.84
2017-10-02T11:08:25.408Z,20.89
2017-10-02T11:13:28.089Z,20.62
2017-10-02T11:18:30.836Z,20.82
2017-10-02T11:23:33.446Z,20.74
2017-10-02T11:28:36.137Z,20.88
2017-10-02T11:33:38.101Z,20.93
2017-10-02T11:38:40.726Z,21.07
2017-10-02T11:43:42.716Z,21.09
2017-10-02T11:48:45.537Z,21.01
2017-10-02T11:53:48.364Z,20.93
2017-10-02T11:58:51.651Z,21.06
2017-10-02T12:03:54.529Z,21.63
2017-10-02T12:08:57.214Z,21.72
2017-10-02T12:13:59.938Z,22.03
2017-10-02T12:19:02.555Z,21.80
2017-10-02T12:24:05.925Z,21.94
2017-10-02T12:29:09.618Z,21.57
2017-10-02T12:34:12.214Z,21.50
2017-10-02T12:39:14.864Z,21.44
2017-10-02T12:44:22.786Z,21.77
2017-10-02T12:49:28.249Z,21.82
2017-10-02T12:54:31.027Z,21.66
2017-10-02T12:59:35.092Z,21.65
2017-10-02T13:04:40.468Z,21.67
2017-10-02T13:09:43.143Z,21.66
2017-10-02T13:14:46.327Z,21.69
2017-10-02T13:19:49.026Z,21.57
2017-10-02T13:24:53.122Z,21.36
2017-10-02T13:30:01.005Z,21.40
2017-10-02T13:35:06.787Z,21.41
2017-10-02T13:40:08.951Z,21.56
2017-10-02T13:45:11.519Z,21.51
2017-10-02T13:50:16.905Z,21.55
2017-10-02T13:55:23.946Z,21.54
2017-10-02T14:00:30.662Z,21.40
2017-10-02T14:05:38.092Z,21.77
2017-10-02T14:10:40.773Z,21.78
2017-10-02T14:21:03.450Z,21.63
2017-10-02T14:26:05.538Z,21.75
2017-10-02T14:31:15.216Z,21.82
2017-10-02T14:36:19.753Z,21.78
2017-10-02T14:41:22.184Z,21.98
2017-10-02T14:46:24.674Z,21.70
2017-10-02T14:51:27.940Z,21.41
2017-10-02T14:56:34.839Z,21.17
2017-10-02T15:01:37.787Z,21.40
2017-10-02T15:06:40.109Z,21.41
2017-10-02T15:11:43.714Z,21.11
2017-10-02T15:16:46.429Z,20.90
2017-10-02T15:21:49.363Z,21.03
2017-10-02T15:26:51.596Z,20.72
2017-10-02T15:31:53.879Z,20.60
2017-10-02T15:36:56.594Z,20.49
2017-10-02T15:41:59.318Z,20.37
2017-10-02T15:47:02.942Z,20.20
2017-10-02T15:52:05.433Z,20.38
2017-10-02T15:57:08.246Z,20.14
2017-10-02T16:02:10.930Z,20.18
2017-10-02T16:07:13.668Z,19.99
2017-10-02T16:12:15.735Z,20.07
2017-10-02T16:17:17.890Z,19.86
2017-10-02T16:22:22.397Z,19.84
2017-10-02T16:27:25.196Z,19.60
2017-10-02T16:32:27.899Z,19.62
2017-10-02T16:37:30.603Z,19.51
2017-10-02T16:42:32.673Z,19.50
2017-10-02T16:47:34.728Z,19.39
2017-10-02T16:52:36.678Z,19.16
2017-10-02T16:57:38.741Z,19.15
2017-10-02T17:02:40.755Z,19.16
2017-10-02T17:07:42.765Z,19.12
2017-10-02T17:12:45.541Z,19.13
2017-10-02T17:17:48.291Z,19.08
2017-10-02T17:22:51.046Z,19.04
2017-10-02T17:27:53.007Z,19.09
2017-10-02T17:32:54.945Z,19.12
2017-10-02T17:37:56.987Z,18.99
2017-10-02T17:42:59.725Z,19.03
2017-10-02T17:48:01.788Z,18.93
2017-10-02T17:53:04.223Z,18.97
2017-10-02T17:58:06.922Z,18.88
2017-10-02T18:03:09.930Z,18.85
2017-10-02T18:08:12.163Z,18.82
2017-10-02T18:13:14.505Z,18.86
2017-10-02T18:18:17.337Z,18.81
2017-10-02T18:23:24.988Z,18.84
2017-10-02T18:28:30.307Z,18.80
2017-10-02T18:33:33.844Z,18.77
2017-10-02T18:38:37.351Z,18.79
2017-10-02T18:43:44.932Z,18.77
2017-10-02T18:48:47.981Z,18.69
2017-10-02T18:53:56.849Z,18.65
2017-10-02T18:59:05.136Z,18.83
2017-10-02T19:04:08.889Z,18.74
2017-10-02T19:09:10.925Z,18.73
2017-10-02T19:14:15.202Z,18.68
2017-10-02T19:19:20.701Z,18.47
2017-10-02T19:24:25.025Z,18.52
2017-10-02T19:29:27.972Z,18.49
2017-10-02T19:34:30.345Z,18.41
2017-10-02T19:39:33.157Z,18.49
2017-10-02T19:44:35.248Z,18.78
2017-10-02T19:49:38.223Z,18.86
2017-10-02T19:54:41.284Z,18.64
2017-10-02T19:59:44.486Z,18.49
2017-10-02T20:04:47.323Z,18.42
2017-10-02T20:09:49.329Z,18.40
2017-10-02T20:14:51.632Z,18.24
2017-10-02T20:19:53.979Z,18.24
2017-10-02T20:24:57.365Z,18.08
2017-10-02T20:29:59.711Z,18.05
2017-10-02T20:35:01.933Z,18.15
2017-10-02T20:40:04.367Z,18.22
2017-10-02T20:45:06.644Z,18.29
2017-10-02T20:50:08.827Z,18.22
2017-10-02T20:55:10.736Z,17.80
2017-10-02T21:00:12.700Z,17.78
2017-10-02T21:05:14.630Z,17.70
2017-10-02T21:10:16.565Z,17.69
2017-10-02T21:15:18.496Z,17.62
2017-10-02T21:20:21.184Z,17.49
2017-10-02T21:25:23.147Z,17.48
2017-10-02T21:30:25.106Z,17.47
2017-10-02T21:35:27.234Z,17.38
2017-10-02T21:40:29.191Z,17.37
2017-10-02T21:45:31.119Z,17.30
2017-10-02T21:50:33.038Z,17.29
2017-10-02T21:55:34.950Z,17.27
2017-10-02T22:00:36.896Z,17.33
2017-10-02T22:05:38.855Z,17.32
2017-10-02T22:10:40.806Z,17.16
2017-10-02T22:15:42.723Z,17.23
2017-10-02T22:20:44.651Z,17.16
2017-10-02T22:25:46.627Z,17.25
2017-10-02T22:30:48.607Z,17.37
2017-10-02T22:35:50.779Z,17.48
2017-10-02T22:40:53.701Z,17.59
2017-10-02T22:45:55.683Z,17.54
2017-10-02T22:50:58.226Z,17.54
2017-10-02T22:56:00.782Z,17.48
2017-10-02T23:01:03.249Z,17.18
2017-10-02T23:06:05.964Z,17.01
2017-10-02T23:11:08.528Z,17.01
2017-10-02T23:16:11.303Z,16.96
2017-10-02T23:21:13.991Z,16.99
2017-10-02T23:26:16.261Z,16.88
2017-10-02T23:31:18.939Z,16.94
2017-10-02T23:36:21.658Z,17.08
2017-10-02T23:41:24.279Z,16.98
2017-10-02T23:46:27.700Z,16.97
2017-10-02T23:51:30.195Z,17.12
2017-10-02T23:56:32.643Z,17.06
